METAR stanice u blizini

 

LYBE - Beograd / Surčin, Srbija
Ažurirano: 03/04/2020 09:00
Vedro
Vedro
 Pravac vetra JJZ
Vetar: JJZ 6 km/h
Temperatura: 6°C
Tačka rose: 0°C
Vlažnost: 66%
Pritisak: 1014 hPa
Pregled: Vedro
Vidljivost: greater than 10 km
2020/04/03 07:00 LYBE 030700Z 20003KT 130V220 CAVOK 06/M00 Q1014 NOSIG
LYBT - Beograd / Batajnica, Srbija
Ažurirano: 03/04/2020 09:00
Vedro
Vedro
 Pravac vetra JJI
Vetar: JJI 7 km/h
Temperatura: 6°C
Osećaj hladnoće: 4°C
Tačka rose: -1°C
Vlažnost: 61%
Pritisak: 1014 hPa
Pregled: Vedro
Vidljivost: greater than 10 km
2020/04/03 07:00 LYBT 030700Z 16004KT 110V210 CAVOK 06/M01 Q1014 NOSIG
LYVR - Vršac, Srbija
Ažurirano: 03/04/2020 09:00
Vedro
Vedro
 Pravac vetra JJI
Vetar: JJI 26 km/h, Maks.: 44 km/h
Temperatura: 9°C
Osećaj hladnoće: 6°C
Tačka rose: 0°C
Vlažnost: 54%
Pritisak: 1014 hPa
Pregled: Vedro
Vidljivost: greater than 10 km
2020/04/03 07:00 LYVR 030700Z 16014G24KT CAVOK 09/M00 Q1014 NOSIG
 
LYKV - Lađevci, Srbija
Ažurirano: 03/04/2020 09:00
Vedro
Vedro
 Pravac vetra varies
Vetar: varies 4 km/h
Temperatura: 3°C
Tačka rose: 3°C
Vlažnost: 100%
Pritisak: 1015 hPa
Pregled: Vedro
Vidljivost: greater than 10 km
2020/04/03 07:00 LYKV 030700Z VRB02KT CAVOK 03/03 Q1015 NOSIG
LYNI - Niš, Srbija
Ažurirano: 03/04/2020 09:00
Vedro
Vedro
 Pravac vetra J
Vetar: J 6 km/h
Temperatura: 4°C
Tačka rose: 0°C
Vlažnost: 75%
Pritisak: 1015 hPa
Pregled: Vedro
Vidljivost: greater than 10 km
2020/04/03 07:00 LYNI 030700Z 19003KT 120V270 CAVOK 04/00 Q1015 NOSIG
BKPR - Priština, Srbija
Ažurirano: 03/04/2020 09:00
Mist, Few clouds
Mist, Few clouds
 Pravac vetra calm
Vetar: Tišina
Temperatura: 1°C
Tačka rose: -2°C
Vlažnost: 81%
Pritisak: 1014 hPa
Pregled: Mist
Oblaci: Few Clouds
Vidljivost: 4 km
Cloud details: Few Clouds 305 m
2020/04/03 07:00 BKPR 030700Z 00000KT 4000 BR FEW010 01/M02 Q1014 BECMG 7000 NSW RMK 17190095
 
LHPP - Pecs / Pogany, Hungary
Ažurirano: 03/04/2020 08:45
Vedro
Vedro
 Pravac vetra calm
Vetar: Tišina
Temperatura: 7°C
Tačka rose: -1°C
Vlažnost: 57%
Pritisak: 1013 hPa
Pregled: Vedro
Vidljivost: greater than 10 km
2020/04/03 06:45 LHPP 030645Z 00000KT CAVOK 07/M01 Q1013
LHUD - Szeged, Hungary
Ažurirano: 04/07/2019 01:45
NOT Current
Vedro
Vedro
 Pravac vetra S
Vetar: S 7 km/h
Temperatura: 18°C
Tačka rose: 13°C
Vlažnost: 73%
Pritisak: 1019 hPa
Pregled: Vedro
Vidljivost: greater than 10 km
2019/07/03 23:45 LHUD 032345Z 35004KT CAVOK 18/13 Q1019
LRTR - Timisoara, Romania
Ažurirano: 03/04/2020 09:00
Vedro
Vedro
 Pravac vetra IJI
Vetar: IJI 11 km/h
Temperatura: 7°C
Osećaj hladnoće: 5°C
Tačka rose: -2°C
Vlažnost: 53%
Pritisak: 1014 hPa
Pregled: Vedro
Vidljivost: greater than 10 km
2020/04/03 07:00 LRTR 030700Z 11006KT CAVOK 07/M02 Q1014
 
LRCV - Craiova, Romania
Ažurirano: 03/04/2020 09:00
Vedro
Vedro
 Pravac vetra varies
Vetar: varies 4 km/h
Temperatura: 6°C
Tačka rose: 0°C
Vlažnost: 66%
Pritisak: 1015 hPa
Pregled: Vedro
Vidljivost: greater than 10 km
2020/04/03 07:00 LRCV 030700Z VRB02KT CAVOK 06/M00 Q1015
LBSF - Sofia, Bulgaria
Ažurirano: 03/04/2020 09:00
Freezing fog, Oblačno
Freezing fog, Oblačno
 Pravac vetra varies
Vetar: varies 2 km/h
Temperatura: -2°C
Tačka rose: -3°C
Vlažnost: 93%
Pritisak: 1015 hPa
Pregled: Freezing Fog
Oblaci: Oblačno
Vidljivost: 0 km
Cloud details: Oblačno 61 m
2020/04/03 07:00 LBSF 030700Z VRB01KT 0150 R27/0300N FZFG VV002 M02/M03 Q1015 TEMPO 0500 FZFG
LWSK - Skoplje, Makedonija
Ažurirano: 03/04/2020 09:00
Partly Cloudy
Partly Cloudy
 Pravac vetra calm
Vetar: Tišina
Temperatura: 1°C
Tačka rose: -3°C
Vlažnost: 75%
Pritisak: 1017 hPa
Oblaci: Partly Cloudy
Vidljivost: 10 km
Cloud details: Partly Cloudy 762 m
2020/04/03 07:00 LWSK 030700Z 00000KT 9999 SCT025 01/M03 Q1017 NOSIG
 
LYPG - Podgorica, Crna Gora
Ažurirano: 03/04/2020 09:00
Few Clouds
Few Clouds
 Pravac vetra varies
Vetar: varies 4 km/h
Temperatura: 9°C
Tačka rose: 0°C
Vlažnost: 54%
Pritisak: 1014 hPa
Oblaci: Few Clouds
Vidljivost: 10 km
Cloud details: Few Clouds 1524 m
2020/04/03 07:00 LYPG 030700Z VRB02KT 9999 FEW050 09/M00 Q1014 NOSIG
LQSA - Sarajevo, Bosna i Hercegovina
Ažurirano: 03/04/2020 09:00
Vedro
Vedro
 Pravac vetra varies
Vetar: varies 2 km/h
Temperatura: 2°C
Tačka rose: 1°C
Vlažnost: 93%
Pritisak: 1013 hPa
Pregled: Vedro
Vidljivost: greater than 10 km
2020/04/03 07:00 LQSA 030700Z VRB01KT CAVOK 02/01 Q1013
LDOS - Osijek, Hrvatksa
Ažurirano: 03/04/2020 09:00
Partly Cloudy
Partly Cloudy
 Pravac vetra calm
Vetar: Tišina
Temperatura: 7°C
Tačka rose: 0°C
Vlažnost: 61%
Pritisak: 1014 hPa
Oblaci: Partly Cloudy
Vidljivost: 8 km
2020/04/03 07:00 LDOS 030700Z 00000KT 8000 NSC 07/00 Q1014